Time;durP1;ratioP1;P1;durP2;ratioP2;P2;SDS_P1;SDS_P2;PMS_P1;PMS_P2;Temp;Humidity;BMP_temperature;BMP_pressure;BME280_temperature;BME280_humidity;BME280_pressure;Samples;Min_cycle;Max_cycle;Signal;HPM_P1;HPM_P2
2023/01/05 00:01:48;;;;;;;13.50;2.67;;;;;;;6.07;59.93;100853.66;4976473;28;20048;-66
2023/01/05 00:04:14;;;;;;;16.95;1.65;;;;;;;5.90;60.70;100862.69;4958522;28;20089;-66
2023/01/05 00:06:40;;;;;;;17.65;2.88;;;;;;;6.08;60.58;100865.78;4959430;28;20035;-66
2023/01/05 00:09:07;;;;;;;22.35;2.55;;;;;;;6.33;60.26;100870.47;4960094;28;20125;-66
2023/01/05 00:22:55;;;;;;;18.15;2.30;;;;;;;6.16;60.47;100877.72;4956696;28;20130;-66
2023/01/05 00:25:29;;;;;;;10.38;2.83;;;;;;;6.07;60.77;100879.63;4960923;28;20100;-68
2023/01/05 00:27:57;;;;;;;24.92;2.17;;;;;;;6.26;60.44;100879.22;4964526;28;20325;-67
2023/01/05 00:30:25;;;;;;;12.68;1.05;;;;;;;6.15;60.23;100876.00;4961322;28;20550;-67
2023/01/05 00:32:51;;;;;;;25.65;1.95;;;;;;;6.26;59.76;100885.28;4955519;28;20066;-65
2023/01/05 00:35:17;;;;;;;19.20;3.55;;;;;;;6.26;60.14;100879.22;4963746;28;20134;-67
2023/01/05 00:37:44;;;;;;;20.38;2.17;;;;;;;6.39;59.53;100880.69;4957098;28;20050;-66
2023/01/05 00:40:19;;;;;;;15.13;2.50;;;;;;;5.86;61.19;100885.25;4961570;28;20408;-67
2023/01/05 00:42:45;;;;;;;17.50;2.13;;;;;;;5.76;61.84;100894.94;4960384;28;20121;-65
2023/01/05 00:45:13;;;;;;;15.70;2.17;;;;;;;5.78;61.97;100903.56;4959196;28;20042;-66
2023/01/05 00:47:39;;;;;;;13.82;1.20;;;;;;;5.55;63.39;100895.38;4964045;28;20911;-65
2023/01/05 00:50:06;;;;;;;14.75;1.17;;;;;;;5.23;64.53;100884.72;4958609;28;20042;-65
2023/01/05 00:52:33;;;;;;;14.07;1.02;;;;;;;5.15;64.94;100917.66;4960461;28;20433;-67
2023/01/05 00:54:59;;;;;;;18.80;2.33;;;;;;;5.66;63.32;100904.66;4962276;28;20495;-64
2023/01/05 00:57:25;;;;;;;23.95;2.85;;;;;;;5.59;63.63;100895.28;4964606;28;20105;-64
2023/01/05 00:59:52;;;;;;;24.65;3.13;;;;;;;5.84;63.19;100907.78;4963312;28;20093;-66
2023/01/05 01:02:18;;;;;;;24.13;2.13;;;;;;;5.56;63.99;100916.06;4966013;28;20046;-65
2023/01/05 01:04:44;;;;;;;11.50;1.10;;;;;;;5.83;63.12;100919.03;4966900;28;20058;-65
2023/01/05 01:07:10;;;;;;;19.63;2.25;;;;;;;5.59;64.05;100923.81;4963769;28;20042;-65
2023/01/05 01:09:36;;;;;;;20.95;2.72;;;;;;;5.74;63.08;100914.03;4963686;28;20149;-65
2023/01/05 01:12:01;;;;;;;15.68;2.72;;;;;;;5.69;63.62;100911.50;4961961;28;20081;-64
2023/01/05 01:14:27;;;;;;;11.52;1.55;;;;;;;5.34;64.92;100913.00;4949789;28;20454;-66
2023/01/05 01:16:53;;;;;;;11.57;1.98;;;;;;;5.81;63.72;100921.63;4965286;28;20867;-68
2023/01/05 01:19:23;;;;;;;10.40;1.85;;;;;;;5.89;62.90;100913.72;4966212;28;20122;-63
2023/01/05 01:21:48;;;;;;;19.02;1.73;;;;;;;5.66;63.94;100924.56;4966076;28;20046;-65
2023/01/05 01:24:25;;;;;;;18.15;1.73;;;;;;;5.91;63.17;100917.16;4969154;28;20049;-65
2023/01/05 01:26:52;;;;;;;19.17;3.00;;;;;;;6.05;62.24;100948.84;4962882;28;20038;-65
2023/01/05 01:29:18;;;;;;;29.10;2.30;;;;;;;5.86;63.07;100937.16;4962686;28;20031;-65
2023/01/05 01:31:46;;;;;;;20.63;2.25;;;;;;;6.42;61.12;100948.13;4961002;28;20492;-65
2023/01/05 01:34:11;;;;;;;15.23;2.10;;;;;;;6.23;62.09;100954.56;4965153;28;20038;-65
2023/01/05 01:36:38;;;;;;;18.65;1.85;;;;;;;6.20;62.00;100967.59;4965188;28;20078;-65
2023/01/05 01:39:04;;;;;;;6.60;1.40;;;;;;;5.99;61.93;100948.13;4965499;28;20049;-66
2023/01/05 01:41:33;;;;;;;8.02;0.93;;;;;;;5.45;63.44;100967.25;4965948;28;20057;-66
2023/01/05 01:43:59;;;;;;;2.42;0.45;;;;;;;5.40;63.88;100963.91;4966403;28;20045;-65
2023/01/05 01:46:27;;;;;;;7.20;0.20;;;;;;;5.23;63.64;100957.28;4962768;28;20327;-65
2023/01/05 01:48:57;;;;;;;6.00;0.20;;;;;;;5.63;62.83;100972.13;4962161;28;20046;-66
2023/01/05 01:51:29;;;;;;;8.10;1.58;;;;;;;5.33;63.34;100973.50;4965426;28;20104;-65
2023/01/05 01:53:58;;;;;;;4.63;0.15;;;;;;;5.51;63.12;100977.53;4964720;28;20120;-65
2023/01/05 01:56:29;;;;;;;2.42;0.47;;;;;;;5.23;63.27;100974.53;4963923;28;20062;-66
2023/01/05 01:58:54;;;;;;;1.73;0.10;;;;;;;5.11;63.02;100978.19;4966840;28;20495;-65
2023/01/05 02:01:20;;;;;;;2.20;0.25;;;;;;;5.29;63.07;100979.63;4983633;28;20340;-66
2023/01/05 02:03:46;;;;;;;4.22;0.10;;;;;;;5.42;62.99;100975.09;4962143;28;20857;-62
2023/01/05 02:06:12;;;;;;;4.05;0.08;;;;;;;5.20;63.34;100983.22;4963599;28;20399;-63
2023/01/05 02:08:37;;;;;;;5.43;0.15;;;;;;;5.39;62.63;100982.91;4963852;28;20084;-62
2023/01/05 02:11:06;;;;;;;3.00;0.10;;;;;;;5.55;61.84;100970.56;4961929;28;20511;-62
2023/01/05 02:13:54;;;;;;;0.25;0.00;;;;;;;4.96;63.31;100988.75;4961972;28;20050;-63
2023/01/05 02:16:29;;;;;;;1.63;0.25;;;;;;;4.87;63.78;100989.72;4967709;28;20158;-63
2023/01/05 02:19:33;;;;;;;2.10;0.20;;;;;;;5.63;61.81;100987.66;4967873;28;20081;-62
2023/01/05 02:22:15;;;;;;;3.60;0.10;;;;;;;5.41;62.60;100981.16;4960637;28;20685;-63
2023/01/05 02:25:03;;;;;;;5.63;0.17;;;;;;;5.63;61.55;100998.03;4954478;28;20189;-63
2023/01/05 02:27:39;;;;;;;3.15;0.08;;;;;;;5.49;62.05;100989.66;4962545;28;20043;-63
2023/01/05 02:30:32;;;;;;;0.65;0.03;;;;;;;5.27;62.88;100996.94;4963160;28;20041;-62
2023/01/05 02:33:07;;;;;;;0.68;0.10;;;;;;;5.50;61.92;100990.50;4966082;28;20050;-62
2023/01/05 02:35:53;;;;;;;2.10;0.32;;;;;;;5.64;61.54;100999.78;4963412;28;20779;-63
2023/01/05 02:38:53;;;;;;;0.80;0.20;;;;;;;5.61;62.14;100998.97;4967901;28;20046;-62
2023/01/05 02:41:22;;;;;;;0.38;0.10;;;;;;;5.56;62.58;100995.59;4967698;28;20046;-63
2023/01/05 02:43:48;;;;;;;1.25;0.20;;;;;;;5.74;61.98;100995.25;4964791;28;20447;-63
2023/01/05 02:46:14;;;;;;;1.98;0.10;;;;;;;5.61;62.70;101004.13;4972800;28;20050;-63
2023/01/05 02:48:41;;;;;;;1.70;0.08;;;;;;;5.61;62.51;101005.03;4956482;28;20053;-65
2023/01/05 02:51:15;;;;;;;2.60;0.13;;;;;;;5.46;63.27;101010.47;4962445;28;20455;-64
2023/01/05 02:53:46;;;;;;;2.72;0.10;;;;;;;5.47;62.96;101012.16;4965028;28;20529;-64
2023/01/05 02:56:25;;;;;;;5.10;0.15;;;;;;;5.21;63.17;101010.84;4957540;28;20845;-65
2023/01/05 02:59:00;;;;;;;1.05;0.10;;;;;;;5.39;63.04;101021.78;4969381;28;20038;-64
2023/01/05 03:01:32;;;;;;;2.67;0.30;;;;;;;5.53;62.94;101024.19;4962484;28;20150;-64
2023/01/05 03:04:18;;;;;;;5.35;0.52;;;;;;;5.61;62.21;101024.88;4965116;28;20594;-65
2023/01/05 03:07:06;;;;;;;6.03;0.40;;;;;;;5.51;62.59;101025.94;4962694;28;20046;-65
2023/01/05 03:09:36;;;;;;;2.53;0.20;;;;;;;5.84;61.26;101032.28;4979194;28;20038;-65
2023/01/05 03:15:35;;;;;;;0.73;0.10;;;;;;;4.83;63.34;101019.13;4965509;28;19926;-65
2023/01/05 03:18:08;;;;;;;5.13;0.40;;;;;;;5.31;63.01;101032.28;4941570;28;20153;-65
2023/01/05 03:20:42;;;;;;;2.30;0.20;;;;;;;5.37;63.17;101037.38;4960703;28;20515;-66
2023/01/05 03:37:45;;;;;;;9.15;1.08;;;;;;;5.02;63.92;101050.84;4971641;28;20681;-64
2023/01/05 03:40:18;;;;;;;8.40;1.23;;;;;;;5.40;63.14;101052.88;4985605;28;20046;-63
2023/01/05 03:42:45;;;;;;;5.70;0.52;;;;;;;6.09;61.21;101064.69;4978485;28;20030;-65
2023/01/05 03:45:14;;;;;;;4.88;0.38;;;;;;;5.97;61.80;101056.25;4983562;28;20041;-66
2023/01/05 03:47:51;;;;;;;5.45;0.20;;;;;;;6.22;61.14;101059.28;4959281;28;20073;-64
2023/01/05 03:50:22;;;;;;;7.68;1.50;;;;;;;5.84;62.39;101053.03;4979458;28;20053;-64
2023/01/05 03:52:47;;;;;;;8.90;1.00;;;;;;;5.88;62.53;101054.66;4978994;28;20038;-66
2023/01/05 03:55:13;;;;;;;16.77;2.00;;;;;;;5.73;62.74;101063.59;4981715;28;20050;-66
2023/01/05 03:57:40;;;;;;;14.80;2.63;;;;;;;5.87;61.91;101065.94;4982112;28;20246;-66
2023/01/05 04:00:08;;;;;;;14.38;2.33;;;;;;;5.40;62.75;101068.44;4980887;28;20045;-64
2023/01/05 04:02:43;;;;;;;16.63;1.25;;;;;;;5.60;62.74;101075.91;4978316;28;20042;-64
2023/01/05 04:05:10;;;;;;;13.90;1.45;;;;;;;5.52;63.15;101080.34;4977988;28;20033;-65
2023/01/05 04:07:39;;;;;;;23.35;2.22;;;;;;;6.15;61.07;101078.41;4965433;28;20038;-63
2023/01/05 04:10:05;;;;;;;9.75;1.08;;;;;;;5.54;62.45;101076.00;4991082;28;20038;-65
2023/01/05 04:12:32;;;;;;;14.25;1.35;;;;;;;5.62;62.20;101089.69;4977678;28;20132;-64
2023/01/05 04:15:00;;;;;;;15.77;2.00;;;;;;;5.53;62.29;101084.66;4977693;28;23440;-64
2023/01/05 04:17:26;;;;;;;7.85;0.98;;;;;;;5.90;61.20;101084.03;4974548;28;20214;-64
2023/01/05 04:19:53;;;;;;;9.43;1.08;;;;;;;5.57;62.21;101091.50;4979171;28;20096;-65
2023/01/05 04:22:21;;;;;;;5.00;0.70;;;;;;;5.52;62.76;101093.31;4966191;28;20124;-64
2023/01/05 04:24:48;;;;;;;5.65;0.52;;;;;;;5.59;62.09;101099.25;4982812;28;20487;-64
2023/01/05 04:27:14;;;;;;;6.15;0.75;;;;;;;5.68;61.61;101101.69;4982622;28;20104;-64
2023/01/05 04:29:40;;;;;;;6.97;0.70;;;;;;;6.18;60.13;101104.34;4970922;28;20038;-64
2023/01/05 04:32:07;;;;;;;7.88;0.38;;;;;;;5.79;61.06;101101.53;4987340;28;20038;-65
2023/01/05 04:34:34;;;;;;;11.15;0.88;;;;;;;5.76;61.48;101101.59;4983012;28;20045;-65
2023/01/05 04:37:00;;;;;;;6.38;0.50;;;;;;;5.94;60.30;101106.47;4966490;28;20033;-65
2023/01/05 04:39:29;;;;;;;12.75;1.30;;;;;;;5.76;61.08;101112.81;4980235;28;20069;-65
2023/01/05 04:41:57;;;;;;;19.67;2.15;;;;;;;5.80;60.59;101100.66;4963928;28;20046;-63
2023/01/05 04:44:24;;;;;;;8.93;0.75;;;;;;;5.51;61.30;101101.13;4960766;28;20038;-64
2023/01/05 04:46:50;;;;;;;7.90;0.55;;;;;;;5.32;62.02;101109.16;4964569;28;20038;-65
2023/01/05 04:49:17;;;;;;;13.00;0.80;;;;;;;5.57;60.75;101106.19;4968452;28;20038;-69
2023/01/05 04:51:46;;;;;;;8.55;1.40;;;;;;;5.48;60.73;101112.41;4947914;28;20084;-70
2023/01/05 04:54:12;;;;;;;10.52;0.93;;;;;;;5.17;61.44;101127.53;4964781;28;20098;-69
2023/01/05 04:56:40;;;;;;;12.55;1.88;;;;;;;5.23;61.13;101128.31;4965781;28;20035;-68
2023/01/05 04:59:07;;;;;;;11.50;0.98;;;;;;;5.47;60.55;101121.03;4967475;28;20085;-69
2023/01/05 05:01:35;;;;;;;8.57;1.05;;;;;;;4.92;62.12;101132.16;4985624;28;20061;-68
2023/01/05 05:04:03;;;;;;;15.95;0.80;;;;;;;5.57;60.14;101133.00;4975038;28;20041;-65
2023/01/05 05:06:29;;;;;;;9.23;1.38;;;;;;;5.43;60.75;101132.31;4961021;28;20022;-65
2023/01/05 05:08:55;;;;;;;14.93;1.30;;;;;;;5.59;60.18;101130.38;4960830;28;20038;-65
2023/01/05 05:11:23;;;;;;;4.38;0.35;;;;;;;5.60;59.83;101148.50;4968604;28;20503;-64
2023/01/05 05:13:49;;;;;;;10.02;1.75;;;;;;;5.32;61.00;101147.19;4957679;28;20051;-64
2023/01/05 05:16:15;;;;;;;11.52;1.15;;;;;;;5.24;61.12;101153.31;4964825;28;20039;-64
2023/01/05 05:18:43;;;;;;;15.38;1.30;;;;;;;5.14;61.11;101146.53;4959543;28;20087;-65
2023/01/05 05:21:15;;;;;;;10.80;1.23;;;;;;;5.62;59.77;101162.31;4960188;28;20039;-65
2023/01/05 05:23:41;;;;;;;6.10;0.73;;;;;;;5.32;60.47;101158.41;4956147;28;20042;-67
2023/01/05 05:26:07;;;;;;;16.25;0.38;;;;;;;5.13;61.05;101170.75;4957126;28;20866;-67
2023/01/05 05:28:33;;;;;;;2.97;0.20;;;;;;;5.32;60.32;101173.09;4962200;28;20691;-66
2023/01/05 05:30:59;;;;;;;6.20;0.20;;;;;;;5.31;60.42;101172.25;4962809;28;20396;-66
2023/01/05 05:33:24;;;;;;;2.95;0.30;;;;;;;5.22;59.97;101177.56;4962231;28;21298;-66
2023/01/05 05:35:50;;;;;;;7.20;0.65;;;;;;;5.60;58.67;101178.78;4960003;28;20143;-64
2023/01/05 05:38:15;;;;;;;10.23;0.55;;;;;;;5.14;60.06;101184.56;4978387;28;20581;-64
2023/01/05 05:40:43;;;;;;;7.18;0.70;;;;;;;5.55;58.67;101188.34;4982209;28;20486;-64
2023/01/05 05:43:09;;;;;;;10.48;1.00;;;;;;;5.23;59.94;101189.63;4980973;28;20088;-63
2023/01/05 05:45:35;;;;;;;10.50;0.85;;;;;;;4.88;60.66;101190.91;4978495;28;20636;-63
2023/01/05 05:48:00;;;;;;;6.45;0.43;;;;;;;5.50;58.66;101198.75;4983306;28;20052;-64
2023/01/05 05:50:26;;;;;;;4.85;0.30;;;;;;;5.17;59.84;101211.31;4982370;28;20050;-63
2023/01/05 05:52:52;;;;;;;7.55;0.20;;;;;;;5.39;59.22;101221.38;4962813;28;20439;-63
2023/01/05 05:55:18;;;;;;;5.35;0.40;;;;;;;5.38;59.54;101215.34;4982054;28;20042;-63
2023/01/05 05:57:44;;;;;;;5.38;0.50;;;;;;;5.22;59.75;101222.47;4982774;28;20034;-65
2023/01/05 06:00:10;;;;;;;8.43;0.30;;;;;;;5.23;59.36;101223.31;4985338;28;20042;-63
2023/01/05 06:02:39;;;;;;;9.75;0.57;;;;;;;5.10;59.94;101222.63;4985771;28;20041;-64
2023/01/05 06:05:05;;;;;;;9.60;0.90;;;;;;;4.73;60.99;101233.31;4986991;28;20045;-64
2023/01/05 06:07:30;;;;;;;4.57;0.47;;;;;;;5.24;59.39;101243.19;4979629;28;20144;-64
2023/01/05 06:09:56;;;;;;;9.00;0.98;;;;;;;5.25;59.40;101244.88;4982563;28;20045;-63
2023/01/05 06:12:22;;;;;;;9.98;0.85;;;;;;;5.42;58.35;101247.28;4982207;28;20056;-63
2023/01/05 06:14:47;;;;;;;9.98;0.75;;;;;;;5.32;58.78;101253.44;4979928;28;20031;-63
2023/01/05 06:17:13;;;;;;;12.05;0.90;;;;;;;5.02;59.67;101260.69;4981459;28;20037;-64
2023/01/05 06:19:38;;;;;;;3.92;0.77;;;;;;;4.96;59.96;101263.34;4979406;28;20038;-63
2023/01/05 06:22:04;;;;;;;6.28;1.42;;;;;;;5.11;59.05;101263.19;4983797;28;20041;-64
2023/01/05 06:24:29;;;;;;;9.70;2.17;;;;;;;4.84;59.82;101264.31;4981455;28;20037;-65
2023/01/05 06:26:55;;;;;;;9.43;0.32;;;;;;;4.59;60.67;101268.84;4980311;28;20197;-66
2023/01/05 06:29:21;;;;;;;13.93;0.50;;;;;;;5.08;59.33;101273.59;4983532;28;20040;-63
2023/01/05 06:31:48;;;;;;;10.55;1.52;;;;;;;5.17;58.49;101276.09;4985725;28;20112;-65
2023/01/05 06:34:14;;;;;;;11.65;1.23;;;;;;;4.98;58.89;101266.78;4982060;28;20294;-66
2023/01/05 06:36:39;;;;;;;8.20;0.93;;;;;;;5.15;58.66;101288.19;4982418;28;20400;-66
2023/01/05 06:39:05;;;;;;;6.38;0.63;;;;;;;5.29;58.06;101292.38;4962498;28;20042;-68
2023/01/05 06:41:31;;;;;;;7.22;0.30;;;;;;;5.16;58.42;101291.63;4983804;28;20042;-67
2023/01/05 06:43:56;;;;;;;8.15;1.05;;;;;;;5.24;58.28;101301.06;4977860;28;20038;-68
2023/01/05 06:46:21;;;;;;;4.13;0.65;;;;;;;5.44;57.87;101307.75;4977506;28;20125;-68
2023/01/05 06:48:47;;;;;;;7.78;1.02;;;;;;;5.08;58.43;101309.00;4979253;28;20031;-68
2023/01/05 06:51:12;;;;;;;14.65;1.10;;;;;;;4.84;59.66;101321.28;4979447;28;20073;-67
2023/01/05 06:53:38;;;;;;;10.23;0.63;;;;;;;5.03;59.08;101322.88;4978092;28;20066;-67
2023/01/05 06:56:04;;;;;;;7.55;0.98;;;;;;;4.91;59.29;101335.06;4982407;28;20503;-65
2023/01/05 06:58:29;;;;;;;6.13;0.65;;;;;;;5.13;58.26;101344.38;4989141;28;20038;-65
2023/01/05 07:00:55;;;;;;;7.32;1.48;;;;;;;4.83;59.17;101342.88;4986706;28;21372;-65
2023/01/05 07:03:22;;;;;;;9.50;0.88;;;;;;;5.03;58.40;101347.91;4982065;28;20054;-66
2023/01/05 07:05:47;;;;;;;13.10;1.05;;;;;;;5.08;57.96;101348.75;4979530;28;20153;-66
2023/01/05 07:08:13;;;;;;;12.88;0.68;;;;;;;5.10;58.41;101359.94;4981940;28;20161;-66
2023/01/05 07:10:38;;;;;;;11.98;0.80;;;;;;;4.88;58.68;101358.38;4977682;28;20072;-66
2023/01/05 07:13:04;;;;;;;6.10;0.40;;;;;;;5.15;57.66;101360.75;4983804;28;20407;-64
2023/01/05 07:15:29;;;;;;;11.35;1.08;;;;;;;5.08;58.15;101372.06;4984071;28;20432;-64
2023/01/05 07:17:55;;;;;;;5.45;1.10;;;;;;;4.92;58.42;101370.44;4980759;28;21692;-64
2023/01/05 07:20:21;;;;;;;23.60;1.00;;;;;;;4.81;58.46;101379.16;4980644;28;20117;-64
2023/01/05 07:22:46;;;;;;;5.90;1.23;;;;;;;5.18;57.69;101384.03;4978423;28;20043;-66
2023/01/05 07:25:11;;;;;;;11.05;1.48;;;;;;;5.21;57.34;101383.16;4982421;28;20781;-67
2023/01/05 07:27:37;;;;;;;7.82;0.73;;;;;;;5.04;57.47;101396.28;4979255;28;20794;-66
2023/01/05 07:30:03;;;;;;;9.00;0.80;;;;;;;4.97;57.78;101395.47;4982829;28;20064;-66
2023/01/05 07:32:28;;;;;;;8.93;0.38;;;;;;;5.17;57.12;101397.03;4983132;28;20499;-67
2023/01/05 07:34:54;;;;;;;9.02;0.82;;;;;;;5.10;57.50;101403.13;4977348;28;20041;-67
2023/01/05 07:37:19;;;;;;;6.22;0.45;;;;;;;5.15;57.10;101402.22;4981817;28;20156;-67
2023/01/05 07:39:45;;;;;;;9.15;0.60;;;;;;;5.11;57.44;101397.94;4980536;28;20076;-66
2023/01/05 07:42:10;;;;;;;5.57;0.73;;;;;;;4.98;57.84;101402.34;4983216;28;20044;-66
2023/01/05 07:44:39;;;;;;;11.35;1.48;;;;;;;5.10;57.21;101406.59;4966261;28;20048;-66
2023/01/05 07:47:04;;;;;;;14.82;0.90;;;;;;;5.27;57.07;101414.19;4981370;28;20046;-65
2023/01/05 07:49:30;;;;;;;12.10;0.70;;;;;;;5.07;57.53;101416.97;4983502;28;20151;-65
2023/01/05 07:51:55;;;;;;;10.93;0.90;;;;;;;5.29;57.28;101415.03;4976116;28;20045;-65
2023/01/05 07:54:23;;;;;;;8.85;1.05;;;;;;;4.88;58.57;101415.38;4987158;28;20053;-65
2023/01/05 07:56:49;;;;;;;18.45;0.55;;;;;;;5.45;57.11;101434.75;4985401;28;20487;-64
2023/01/05 07:59:15;;;;;;;9.55;0.57;;;;;;;5.31;57.40;101430.59;4978741;28;20045;-68
2023/01/05 08:01:40;;;;;;;8.68;0.88;;;;;;;5.51;57.05;101441.63;4981251;28;20550;-67
2023/01/05 08:04:06;;;;;;;5.97;1.20;;;;;;;5.63;56.36;101451.88;4977572;28;20137;-63
2023/01/05 08:06:32;;;;;;;10.13;0.47;;;;;;;5.63;56.63;101459.66;4982222;28;20117;-65
2023/01/05 08:10:27;;;;;;;7.47;0.52;;;;;;;5.82;56.05;101469.84;4980310;28;20077;-65
2023/01/05 08:11:45;;;;;;;12.65;0.95;;;;;;;5.43;56.96;101464.16;4979271;28;20056;-68
2023/01/05 08:14:11;;;;;;;12.50;1.02;;;;;;;5.46;56.96;101482.31;4980022;28;20062;-65
2023/01/05 08:16:36;;;;;;;12.00;1.60;;;;;;;5.53;56.89;101490.88;4977090;28;20137;-67
2023/01/05 08:19:02;;;;;;;6.10;1.25;;;;;;;5.08;57.95;101499.03;4983311;28;20462;-66
2023/01/05 08:21:27;;;;;;;11.00;0.70;;;;;;;5.08;58.28;101496.44;4982553;28;20059;-66
2023/01/05 08:23:53;;;;;;;7.43;0.47;;;;;;;5.63;57.16;101495.94;4977380;28;20046;-65
2023/01/05 08:26:22;;;;;;;12.43;0.63;;;;;;;5.80;56.52;101494.94;4964849;28;20052;-66
2023/01/05 08:28:48;;;;;;;9.73;0.45;;;;;;;5.79;56.51;101501.00;4980762;28;20057;-66
2023/01/05 08:31:20;;;;;;;9.80;0.50;;;;;;;5.80;56.56;101502.72;4975664;28;20042;-66
2023/01/05 08:33:45;;;;;;;;;;;;;;;5.42;57.52;101516.91;4959841;28;20437;-66
2023/01/05 08:36:18;;;;;;;17.17;0.60;;;;;;;5.84;56.61;101523.44;4975435;28;20382;-65
2023/01/05 08:38:47;;;;;;;8.05;0.82;;;;;;;5.75;56.82;101525.25;4978209;28;20505;-66
2023/01/05 08:41:24;;;;;;;10.27;0.63;;;;;;;5.90;57.02;101538.06;4977986;28;20491;-66
2023/01/05 08:43:55;;;;;;;9.07;0.80;;;;;;;6.01;56.17;101533.63;4973992;28;20041;-67
2023/01/05 08:46:22;;;;;;;8.77;1.08;;;;;;;6.20;55.91;101538.66;4979505;28;20069;-66
2023/01/05 08:48:54;;;;;;;9.70;1.80;;;;;;;6.09;55.92;101542.19;4979480;28;20034;-66
2023/01/05 08:51:20;;;;;;;11.83;0.77;;;;;;;6.04;56.05;101545.72;4981109;28;20637;-67
2023/01/05 08:53:46;;;;;;;15.90;2.20;;;;;;;6.01;56.00;101550.94;4978819;28;20297;-66
2023/01/05 08:56:11;;;;;;;6.57;0.50;;;;;;;6.04;55.75;101556.97;4986417;28;20038;-66
2023/01/05 08:58:38;;;;;;;9.15;0.88;;;;;;;6.03;56.26;101565.63;4991186;28;20096;-66
2023/01/05 09:01:15;;;;;;;7.38;0.60;;;;;;;6.02;55.83;101566.50;4973737;28;20070;-67
2023/01/05 09:03:40;;;;;;;3.92;0.65;;;;;;;6.30;55.46;101579.22;4970020;28;20789;-66
2023/01/05 09:06:08;;;;;;;14.70;1.80;;;;;;;6.50;54.70;101574.66;4975830;28;20270;-66
2023/01/05 09:08:34;;;;;;;7.93;0.65;;;;;;;6.78;54.29;101573.47;4975349;28;20404;-66
2023/01/05 09:11:10;;;;;;;15.77;1.85;;;;;;;6.78;54.26;101583.88;4975036;28;20038;-66
2023/01/05 09:13:38;;;;;;;6.43;1.25;;;;;;;6.74;53.90;101588.22;4973112;28;20042;-67
2023/01/05 09:16:07;;;;;;;8.63;0.75;;;;;;;6.56;53.98;101588.47;4979082;28;20323;-67
2023/01/05 09:18:36;;;;;;;9.18;0.70;;;;;;;6.68;54.25;101586.56;4976992;28;20038;-67
2023/01/05 09:21:04;;;;;;;6.95;0.47;;;;;;;6.62;54.04;101584.06;4978379;28;20098;-67
2023/01/05 09:23:30;;;;;;;7.43;0.55;;;;;;;6.84;53.91;101595.03;4977830;28;20046;-67
2023/01/05 09:25:56;;;;;;;7.80;0.70;;;;;;;7.17;53.27;101594.59;4964886;28;20551;-69
2023/01/05 09:28:21;;;;;;;9.77;0.30;;;;;;;7.31;52.78;101590.94;4979543;28;20483;-67
2023/01/05 09:30:47;;;;;;;13.13;0.63;;;;;;;7.64;52.06;101593.91;4977927;28;20035;-66
2023/01/05 09:33:12;;;;;;;11.10;1.42;;;;;;;7.73;50.72;101592.88;4976908;28;20454;-67
2023/01/05 09:35:37;;;;;;;8.30;0.70;;;;;;;7.79;51.27;101600.59;4974995;28;20073;-65
2023/01/05 09:38:03;;;;;;;8.60;0.95;;;;;;;7.93;51.44;101610.78;4977595;28;20066;-64
2023/01/05 09:40:32;;;;;;;10.98;0.85;;;;;;;7.66;51.11;101607.75;4979101;28;20034;-64
2023/01/05 09:43:00;;;;;;;10.20;0.80;;;;;;;7.77;50.92;101614.53;4976217;28;20093;-65
2023/01/05 09:45:27;;;;;;;7.22;0.50;;;;;;;7.84;50.57;101608.34;4983336;28;20129;-62
2023/01/05 09:47:56;;;;;;;15.23;0.70;;;;;;;8.00;50.49;101611.53;5001025;28;20108;-65
2023/01/05 09:50:24;;;;;;;7.45;0.93;;;;;;;8.30;48.90;101615.34;4978902;28;20042;-64
2023/01/05 09:52:55;;;;;;;16.65;0.43;;;;;;;8.45;49.33;101616.78;4975743;28;20045;-65
2023/01/05 09:55:23;;;;;;;2.35;0.45;;;;;;;8.78;48.01;101620.50;4983971;28;20528;-65
2023/01/05 09:57:57;;;;;;;4.88;0.85;;;;;;;9.00;47.62;101623.50;4977859;28;20046;-65
2023/01/05 10:00:25;;;;;;;14.73;0.95;;;;;;;9.19;46.71;101629.19;4981689;28;20086;-65
2023/01/05 10:03:07;;;;;;;10.73;0.82;;;;;;;9.29;46.65;101638.53;4976423;28;20030;-65
2023/01/05 10:05:36;;;;;;;16.27;0.52;;;;;;;8.89;46.88;101631.56;4977221;28;20274;-63
2023/01/05 10:08:06;;;;;;;6.03;0.30;;;;;;;9.14;45.63;101624.09;4983525;28;20127;-65
2023/01/05 10:13:01;;;;;;;4.32;0.50;;;;;;;9.08;46.65;101629.44;4979875;28;20041;-63
2023/01/05 10:13:33;;;;;;;9.90;0.68;;;;;;;9.14;46.12;101638.84;4980467;28;20042;-63
2023/01/05 10:15:58;;;;;;;11.07;0.70;;;;;;;9.22;45.78;101639.56;4977507;28;20721;-64
2023/01/05 10:18:26;;;;;;;12.75;1.80;;;;;;;9.11;45.40;101642.38;4978908;28;20042;-65
2023/01/05 10:21:19;;;;;;;3.20;0.45;;;;;;;8.73;47.42;101645.81;4973892;28;20085;-64
2023/01/05 10:24:22;;;;;;;13.40;0.70;;;;;;;8.60;47.62;101658.16;4976123;28;20042;-63
2023/01/05 10:26:59;;;;;;;9.05;0.45;;;;;;;9.07;45.14;101653.78;4976512;28;20253;-64
2023/01/05 10:29:35;;;;;;;6.22;0.30;;;;;;;8.90;45.94;101658.50;4977947;28;20077;-62
2023/01/05 10:32:10;;;;;;;4.88;0.65;;;;;;;8.83;46.06;101663.00;4975848;28;20138;-64
2023/01/05 10:34:43;;;;;;;10.15;0.77;;;;;;;8.56;46.91;101675.63;4975297;28;20466;-64
2023/01/05 10:37:20;;;;;;;5.18;0.35;;;;;;;8.57;47.28;101671.28;4981838;28;20038;-64
2023/01/05 10:40:26;;;;;;;6.10;0.57;;;;;;;8.62;47.06;101674.63;4976102;28;20034;-64
2023/01/05 10:43:20;;;;;;;3.60;0.95;;;;;;;8.88;46.41;101681.13;4988444;28;20045;-64
2023/01/05 10:45:45;;;;;;;12.32;1.15;;;;;;;8.81;46.91;101680.41;4981559;28;20053;-64
2023/01/05 10:48:17;;;;;;;5.85;0.57;;;;;;;9.04;46.76;101681.69;4977415;28;20042;-64
2023/01/05 10:50:45;;;;;;;13.85;1.02;;;;;;;8.70;46.48;101683.19;4975837;28;20106;-62
2023/01/05 10:53:23;;;;;;;9.52;1.30;;;;;;;8.42;47.81;101692.41;4974009;28;20038;-65
2023/01/05 10:56:01;;;;;;;10.52;0.88;;;;;;;8.81;47.11;101685.63;4977899;28;20477;-64
2023/01/05 10:58:32;;;;;;;7.68;0.40;;;;;;;8.54;47.43;101682.63;4979152;28;20131;-65
2023/01/05 11:01:13;;;;;;;6.20;0.90;;;;;;;8.49;47.46;101674.00;4975257;28;20065;-64
2023/01/05 11:03:41;;;;;;;11.88;0.47;;;;;;;8.31;47.99;101682.16;4977058;28;20056;-65
2023/01/05 11:06:08;;;;;;;5.20;0.75;;;;;;;8.03;47.51;101672.22;4976415;28;20270;-63
2023/01/05 11:08:35;;;;;;;9.88;0.47;;;;;;;7.79;49.11;101678.69;4976430;28;20450;-65
2023/01/05 11:11:03;;;;;;;10.57;0.77;;;;;;;7.92;48.38;101688.00;4976159;28;20058;-64
2023/01/05 11:13:41;;;;;;;8.50;0.70;;;;;;;8.04;48.21;101684.34;4975292;28;20891;-64
2023/01/05 11:16:14;;;;;;;11.10;1.08;;;;;;;8.36;48.05;101695.97;4976110;28;20057;-63
2023/01/05 11:18:53;;;;;;;9.80;1.00;;;;;;;8.24;47.30;101697.03;4978569;28;20462;-65
2023/01/05 11:21:34;;;;;;;8.10;0.77;;;;;;;8.18;46.79;101693.66;4975095;28;20042;-63
2023/01/05 11:24:00;;;;;;;10.77;1.33;;;;;;;8.14;47.25;101685.91;4975051;28;20483;-63
2023/01/05 11:26:47;;;;;;;3.50;0.40;;;;;;;8.32;47.17;101684.75;4976405;28;20046;-63
2023/01/05 11:29:17;;;;;;;7.18;0.30;;;;;;;7.70;48.07;101697.88;4977915;28;20081;-65
2023/01/05 11:32:03;;;;;;;9.80;0.60;;;;;;;8.36;47.28;101703.81;4974986;28;20407;-63
2023/01/05 11:34:40;;;;;;;11.00;1.00;;;;;;;8.67;46.43;101695.41;4973468;28;20232;-64
2023/01/05 11:37:29;;;;;;;11.02;0.60;;;;;;;9.08;45.14;101701.59;4985292;28;20228;-63
2023/01/05 11:39:57;;;;;;;8.55;0.30;;;;;;;8.96;45.75;101695.75;4978237;28;20106;-64
2023/01/05 11:42:23;;;;;;;12.55;0.43;;;;;;;9.10;45.26;101703.28;4975607;28;20038;-63
2023/01/05 11:44:52;;;;;;;7.30;0.50;;;;;;;9.14;45.52;101701.44;4971927;28;20037;-64
2023/01/05 11:47:33;;;;;;;7.60;0.40;;;;;;;9.36;44.99;101715.75;4978295;28;20670;-64
2023/01/05 11:50:13;;;;;;;7.47;0.57;;;;;;;9.49;44.96;101718.09;4974247;28;20045;-64
2023/01/05 11:52:39;;;;;;;15.63;1.30;;;;;;;9.56;44.93;101715.31;4972774;28;20180;-65
2023/01/05 11:55:23;;;;;;;8.40;0.63;;;;;;;9.27;44.79;101710.72;4975425;28;20045;-64
2023/01/05 11:57:51;;;;;;;9.32;0.50;;;;;;;9.02;45.90;101712.16;4973320;28;20133;-65
2023/01/05 12:00:26;;;;;;;14.98;1.08;;;;;;;9.34;45.87;101721.91;4976229;28;20113;-65
2023/01/05 12:03:17;;;;;;;20.08;0.95;;;;;;;8.88;45.88;101715.88;4973988;28;20095;-64
2023/01/05 12:05:53;;;;;;;11.00;1.10;;;;;;;8.57;46.80;101713.81;4973102;28;20045;-64
2023/01/05 12:08:31;;;;;;;7.97;1.15;;;;;;;8.74;46.71;101717.91;4976107;28;20264;-63
2023/01/05 12:11:11;;;;;;;16.52;0.85;;;;;;;8.36;46.75;101714.22;4976242;28;20093;-64